createdAt,value
2018-02-04T00:00:57.183Z,84.10
2018-02-04T00:03:25.364Z,84.20
2018-02-04T00:05:53.506Z,84.20
2018-02-04T00:08:21.844Z,84.30
2018-02-04T00:10:49.488Z,84.40
2018-02-04T00:13:17.135Z,84.50
2018-02-04T00:15:44.843Z,84.30
2018-02-04T00:18:12.905Z,84.50
2018-02-04T00:20:40.751Z,84.70
2018-02-04T00:23:08.653Z,84.50
2018-02-04T00:25:36.323Z,84.40
2018-02-04T00:28:04.013Z,84.50
2018-02-04T00:30:31.668Z,84.50
2018-02-04T00:32:59.345Z,84.30
2018-02-04T00:35:27.031Z,84.30
2018-02-04T00:37:54.915Z,84.20
2018-02-04T00:40:22.586Z,84.40
2018-02-04T00:42:50.290Z,84.20
2018-02-04T00:45:18.323Z,84.40
2018-02-04T00:47:46.057Z,84.40
2018-02-04T00:50:13.790Z,84.60
2018-02-04T00:52:42.090Z,84.30
2018-02-04T00:55:09.743Z,84.30
2018-02-04T00:57:37.361Z,84.30
2018-02-04T01:00:05.018Z,84.40
2018-02-04T01:02:32.689Z,84.10
2018-02-04T01:05:00.382Z,84.20
2018-02-04T01:07:28.013Z,84.40
2018-02-04T01:09:55.612Z,83.90
2018-02-04T01:12:23.180Z,84.10
2018-02-04T01:14:53.691Z,84.30
2018-02-04T01:17:21.399Z,84.50
2018-02-04T01:19:49.038Z,84.40
2018-02-04T01:22:16.738Z,84.20
2018-02-04T01:24:44.887Z,84.10
2018-02-04T01:27:18.506Z,83.90
2018-02-04T01:29:46.137Z,83.80
2018-02-04T01:32:14.035Z,83.60
2018-02-04T01:34:41.713Z,83.60
2018-02-04T01:37:09.724Z,83.80
2018-02-04T01:39:37.418Z,83.80
2018-02-04T01:42:05.092Z,83.70
2018-02-04T01:44:33.164Z,83.50
2018-02-04T01:47:01.276Z,83.00
2018-02-04T01:49:28.938Z,83.00
2018-02-04T01:51:56.731Z,82.80
2018-02-04T01:54:24.490Z,82.60
2018-02-04T01:56:52.166Z,82.60
2018-02-04T01:59:20.124Z,82.30
2018-02-04T02:01:47.762Z,82.30
2018-02-04T02:04:15.430Z,82.30
2018-02-04T02:06:43.050Z,81.90
2018-02-04T02:09:11.189Z,82.20
2018-02-04T02:11:40.127Z,82.20
2018-02-04T02:14:07.741Z,82.10
2018-02-04T02:16:35.341Z,82.20
2018-02-04T02:19:02.996Z,81.90
2018-02-04T02:21:30.853Z,81.90
2018-02-04T02:23:58.983Z,82.00
2018-02-04T02:26:27.325Z,81.80
2018-02-04T02:28:55.062Z,81.80
2018-02-04T02:31:22.793Z,82.10
2018-02-04T02:33:50.428Z,82.10
2018-02-04T02:36:19.687Z,82.10
2018-02-04T02:38:47.352Z,81.60
2018-02-04T02:41:14.983Z,81.90
2018-02-04T02:43:42.614Z,81.90
2018-02-04T02:46:10.376Z,82.20
2018-02-04T02:48:38.611Z,82.50
2018-02-04T02:51:06.337Z,82.50
2018-02-04T02:53:34.004Z,82.40
2018-02-04T02:56:01.654Z,82.50
2018-02-04T02:58:29.347Z,82.60
2018-02-04T03:00:58.788Z,83.00
2018-02-04T03:03:26.411Z,83.30
2018-02-04T03:05:54.084Z,83.30
2018-02-04T03:08:21.729Z,83.50
2018-02-04T03:10:50.001Z,83.50
2018-02-04T03:13:18.105Z,83.70
2018-02-04T03:15:45.836Z,83.80
2018-02-04T03:18:13.912Z,83.80
2018-02-04T03:20:41.637Z,83.80
2018-02-04T03:23:09.375Z,83.80
2018-02-04T03:25:37.840Z,83.80
2018-02-04T03:28:05.403Z,84.00
2018-02-04T03:30:32.973Z,84.10
2018-02-04T03:33:00.694Z,84.20
2018-02-04T03:35:28.367Z,84.40
2018-02-04T03:37:56.655Z,84.30
2018-02-04T03:40:25.180Z,84.30
2018-02-04T03:42:53.263Z,84.00
2018-02-04T03:45:20.923Z,84.10
2018-02-04T03:47:49.409Z,83.90
2018-02-04T03:50:17.099Z,84.00
2018-02-04T03:52:45.016Z,83.90
2018-02-04T03:55:12.684Z,84.00
2018-02-04T03:57:42.552Z,84.20
2018-02-04T04:00:10.205Z,84.20
2018-02-04T04:02:37.918Z,84.30
2018-02-04T04:05:05.647Z,84.30
2018-02-04T04:07:34.174Z,84.30
2018-02-04T04:10:01.828Z,84.60
2018-02-04T04:12:32.003Z,84.80
2018-02-04T04:14:59.665Z,84.80
2018-02-04T04:17:27.288Z,84.70
2018-02-04T04:19:57.007Z,84.90
2018-02-04T04:22:25.818Z,84.90
2018-02-04T04:24:53.532Z,84.90
2018-02-04T04:27:22.457Z,85.00
2018-02-04T04:29:50.114Z,85.00
2018-02-04T04:32:17.865Z,84.90
2018-02-04T04:34:46.143Z,85.00
2018-02-04T04:37:13.807Z,85.10
2018-02-04T04:39:41.475Z,85.20
2018-02-04T04:42:09.060Z,85.30
2018-02-04T04:44:36.643Z,85.50
2018-02-04T04:47:04.287Z,85.60
2018-02-04T04:49:31.946Z,85.30
2018-02-04T04:51:59.666Z,85.10
2018-02-04T04:54:27.518Z,84.90
2018-02-04T04:56:57.438Z,84.80
2018-02-04T04:59:25.318Z,84.90
2018-02-04T05:01:53.846Z,84.90
2018-02-04T05:04:22.302Z,84.90
2018-02-04T05:06:49.947Z,84.80
2018-02-04T05:09:17.679Z,84.80
2018-02-04T05:11:45.437Z,84.90
2018-02-04T05:14:13.130Z,85.10
2018-02-04T05:16:44.731Z,85.10
2018-02-04T05:19:14.031Z,85.20
2018-02-04T05:21:42.570Z,85.30
2018-02-04T05:24:10.259Z,85.40
2018-02-04T05:26:39.270Z,85.20
2018-02-04T05:29:07.294Z,85.40
2018-02-04T05:31:34.937Z,85.40
2018-02-04T05:34:02.576Z,85.40
2018-02-04T05:36:31.167Z,85.50
2018-02-04T05:38:59.870Z,85.40
2018-02-04T05:41:27.501Z,85.10
2018-02-04T05:43:55.878Z,85.10
2018-02-04T05:46:26.112Z,85.10
2018-02-04T05:48:53.801Z,85.10
2018-02-04T05:51:21.602Z,84.90
2018-02-04T05:53:49.973Z,84.70
2018-02-04T05:56:21.192Z,84.60
2018-02-04T05:58:50.790Z,84.60
2018-02-04T06:01:18.912Z,84.40
2018-02-04T06:03:47.855Z,84.10
2018-02-04T06:06:17.655Z,84.10
2018-02-04T06:08:46.799Z,84.00
2018-02-04T06:11:14.510Z,84.10
2018-02-04T06:13:43.853Z,84.20
2018-02-04T06:16:24.023Z,84.30
2018-02-04T06:18:53.986Z,84.30
2018-02-04T06:21:26.897Z,84.60
2018-02-04T06:24:04.708Z,84.70
2018-02-04T06:26:39.187Z,84.70
2018-02-04T06:29:09.378Z,84.80
2018-02-04T06:31:37.457Z,84.80
2018-02-04T06:36:39.682Z,84.70
2018-02-04T06:39:08.280Z,84.80
2018-02-04T06:41:36.076Z,84.80
2018-02-04T06:44:06.165Z,85.00
2018-02-04T06:46:40.318Z,85.00
2018-02-04T06:49:11.084Z,85.20
2018-02-04T06:51:45.398Z,85.20
2018-02-04T06:54:15.311Z,85.30
2018-02-04T06:56:47.527Z,85.40
2018-02-04T06:59:18.972Z,85.40
2018-02-04T07:04:25.910Z,85.30
2018-02-04T07:06:58.857Z,85.30
2018-02-04T07:09:28.640Z,85.20
2018-02-04T07:11:59.812Z,85.20
2018-02-04T07:14:28.093Z,85.30
2018-02-04T07:16:56.442Z,85.30
2018-02-04T07:19:28.753Z,85.10
2018-02-04T07:24:40.074Z,84.90
2018-02-04T07:27:09.296Z,84.90
2018-02-04T07:29:39.251Z,84.80
2018-02-04T07:32:12.506Z,84.70
2018-02-04T07:34:44.734Z,84.60
2018-02-04T07:37:28.834Z,84.50
2018-02-04T07:42:30.792Z,84.40
2018-02-04T07:45:04.320Z,84.40
2018-02-04T07:47:40.438Z,84.30
2018-02-04T07:50:08.928Z,84.30
2018-02-04T07:52:47.398Z,84.10
2018-02-04T07:55:15.168Z,83.90
2018-02-04T07:57:49.074Z,83.90
2018-02-04T08:00:18.612Z,83.80
2018-02-04T08:02:48.271Z,83.80
2018-02-04T08:05:19.398Z,83.70
2018-02-04T08:07:47.956Z,83.00
2018-02-04T08:10:15.721Z,82.50
2018-02-04T08:12:44.808Z,82.30
2018-02-04T08:15:14.923Z,82.40
2018-02-04T08:17:45.998Z,82.10
2018-02-04T08:20:15.899Z,82.20
2018-02-04T08:22:44.373Z,81.70
2018-02-04T08:25:15.863Z,80.70
2018-02-04T08:27:47.588Z,80.60
2018-02-04T08:30:18.272Z,80.70
2018-02-04T08:32:46.691Z,81.00
2018-02-04T08:35:21.013Z,81.40
2018-02-04T08:37:51.657Z,81.90
2018-02-04T08:40:26.137Z,81.20
2018-02-04T08:42:56.948Z,80.90
2018-02-04T08:45:27.841Z,80.50
2018-02-04T08:47:56.216Z,80.00
2018-02-04T08:50:24.794Z,79.50
2018-02-04T08:52:52.538Z,79.50
2018-02-04T08:55:35.850Z,79.40
2018-02-04T08:58:04.843Z,79.80
2018-02-04T09:00:34.963Z,79.60
2018-02-04T09:03:12.195Z,79.00
2018-02-04T09:05:39.890Z,79.60
2018-02-04T09:10:48.120Z,79.70
2018-02-04T09:13:16.802Z,80.00
2018-02-04T09:15:47.624Z,80.50
2018-02-04T09:18:21.788Z,80.50
2018-02-04T09:20:57.835Z,80.70
2018-02-04T09:23:28.157Z,80.30
2018-02-04T09:26:00.512Z,81.10
2018-02-04T09:28:53.817Z,80.70
2018-02-04T09:31:23.584Z,81.00
2018-02-04T09:34:03.242Z,80.50
2018-02-04T09:39:20.349Z,80.30
2018-02-04T09:41:58.601Z,80.40
2018-02-04T09:44:35.816Z,80.00
2018-02-04T09:47:08.835Z,79.70
2018-02-04T09:49:38.949Z,79.10
2018-02-04T09:52:07.534Z,79.10
2018-02-04T09:54:38.889Z,78.40
2018-02-04T09:57:08.462Z,79.20
2018-02-04T09:59:51.469Z,78.60
2018-02-04T10:02:24.450Z,78.30
2018-02-04T10:04:58.666Z,78.30
2018-02-04T10:10:49.510Z,78.20
2018-02-04T10:13:17.883Z,78.70
2018-02-04T10:15:48.152Z,78.50
2018-02-04T10:18:16.477Z,78.30
2018-02-04T10:20:46.138Z,78.30
2018-02-04T10:23:18.019Z,78.30
2018-02-04T10:25:49.735Z,77.70
2018-02-04T10:28:17.419Z,76.30
2018-02-04T10:30:45.820Z,75.70
2018-02-04T10:33:14.839Z,75.30
2018-02-04T10:35:43.502Z,75.30
2018-02-04T10:38:11.220Z,77.30
2018-02-04T10:40:38.836Z,77.40
2018-02-04T10:43:06.921Z,76.10
2018-02-04T10:45:34.603Z,76.10
2018-02-04T10:48:02.275Z,75.80
2018-02-04T10:50:30.320Z,75.50
2018-02-04T10:52:57.920Z,75.60
2018-02-04T10:55:26.964Z,75.50
2018-02-04T10:57:54.579Z,75.50
2018-02-04T11:00:22.241Z,74.90
2018-02-04T11:02:50.605Z,74.90
2018-02-04T11:05:18.210Z,75.30
2018-02-04T11:07:46.379Z,76.30
2018-02-04T11:10:14.490Z,77.20
2018-02-04T11:12:42.127Z,77.20
2018-02-04T11:15:09.792Z,77.40
2018-02-04T11:17:37.951Z,77.30
2018-02-04T11:20:05.659Z,77.10
2018-02-04T11:22:33.298Z,76.70
2018-02-04T11:25:01.357Z,76.30
2018-02-04T11:27:29.028Z,74.50
2018-02-04T11:29:57.531Z,74.80
2018-02-04T11:32:25.877Z,74.10
2018-02-04T11:34:53.462Z,74.10
2018-02-04T11:37:21.126Z,74.50
2018-02-04T11:39:48.858Z,74.60
2018-02-04T11:42:16.591Z,75.10
2018-02-04T11:44:44.265Z,74.90
2018-02-04T11:47:11.927Z,74.70
2018-02-04T11:49:39.609Z,74.60
2018-02-04T11:52:07.209Z,74.30
2018-02-04T11:54:34.888Z,74.10
2018-02-04T11:57:02.457Z,73.70
2018-02-04T11:59:30.111Z,73.70
2018-02-04T12:01:57.774Z,74.30
2018-02-04T12:04:25.794Z,75.40
2018-02-04T12:06:53.375Z,75.40
2018-02-04T12:09:20.987Z,75.50
2018-02-04T12:11:48.652Z,75.70
2018-02-04T12:14:16.309Z,75.80
2018-02-04T12:16:43.942Z,75.90
2018-02-04T12:19:11.943Z,76.10
2018-02-04T12:21:40.083Z,76.10
2018-02-04T12:24:08.566Z,76.00
2018-02-04T12:26:36.351Z,76.00
2018-02-04T12:29:04.021Z,76.00
2018-02-04T12:31:31.993Z,76.30
2018-02-04T12:34:00.471Z,76.20
2018-02-04T12:36:28.059Z,75.80
2018-02-04T12:38:57.533Z,75.70
2018-02-04T12:41:25.138Z,75.50
2018-02-04T12:43:52.746Z,75.70
2018-02-04T12:46:20.972Z,75.90
2018-02-04T12:48:48.557Z,75.80
2018-02-04T12:51:16.574Z,75.60
2018-02-04T12:53:44.200Z,75.60
2018-02-04T12:56:11.854Z,74.30
2018-02-04T12:58:39.435Z,74.00
2018-02-04T13:01:07.110Z,74.40
2018-02-04T13:03:34.714Z,74.60
2018-02-04T13:06:02.775Z,74.20
2018-02-04T13:08:30.456Z,74.20
2018-02-04T13:10:58.206Z,74.20
2018-02-04T13:13:25.801Z,73.60
2018-02-04T13:15:53.496Z,73.10
2018-02-04T13:18:21.114Z,72.60
2018-02-04T13:20:49.773Z,72.50
2018-02-04T13:23:17.415Z,72.20
2018-02-04T13:25:44.980Z,71.90
2018-02-04T13:28:13.550Z,71.40
2018-02-04T13:30:42.748Z,71.00
2018-02-04T13:33:11.312Z,71.50
2018-02-04T13:35:39.785Z,70.40
2018-02-04T13:38:08.174Z,70.40
2018-02-04T13:40:35.967Z,70.80
2018-02-04T13:43:03.826Z,71.00
2018-02-04T13:45:32.291Z,70.50
2018-02-04T13:47:59.958Z,70.20
2018-02-04T13:50:27.731Z,69.60
2018-02-04T13:52:55.428Z,68.90
2018-02-04T13:55:23.006Z,69.10
2018-02-04T13:57:50.617Z,69.70
2018-02-04T14:00:18.680Z,69.50
2018-02-04T14:02:46.359Z,69.50
2018-02-04T14:05:14.001Z,69.50
2018-02-04T14:07:41.715Z,69.10
2018-02-04T14:10:10.353Z,69.90
2018-02-04T14:12:38.001Z,69.10
2018-02-04T14:15:05.588Z,67.40
2018-02-04T14:17:34.063Z,67.70
2018-02-04T14:20:02.911Z,69.10
2018-02-04T14:22:30.762Z,69.80
2018-02-04T14:24:58.436Z,69.30
2018-02-04T14:27:26.188Z,68.80
2018-02-04T14:29:53.822Z,69.60
2018-02-04T14:32:22.187Z,69.10
2018-02-04T14:34:49.980Z,69.40
2018-02-04T14:37:18.193Z,70.70
2018-02-04T14:39:45.941Z,70.60
2018-02-04T14:42:13.526Z,70.00
2018-02-04T14:44:42.558Z,71.50
2018-02-04T14:47:10.483Z,71.50
2018-02-04T14:49:38.532Z,71.20
2018-02-04T14:52:06.286Z,71.20
2018-02-04T14:54:34.906Z,71.00
2018-02-04T14:57:02.978Z,70.80
2018-02-04T14:59:37.399Z,70.80
2018-02-04T15:02:05.661Z,70.30
2018-02-04T15:04:35.668Z,70.50
2018-02-04T15:07:04.999Z,70.30
2018-02-04T15:09:33.670Z,70.40
2018-02-04T15:12:07.714Z,70.40
2018-02-04T15:14:36.095Z,70.10
2018-02-04T15:17:04.743Z,69.90
2018-02-04T15:19:40.577Z,69.90
2018-02-04T15:22:09.136Z,69.70
2018-02-04T15:24:39.151Z,70.40
2018-02-04T15:27:13.904Z,70.40
2018-02-04T15:29:43.213Z,71.10
2018-02-04T15:34:46.212Z,71.10
2018-02-04T15:37:15.186Z,71.50
2018-02-04T15:39:44.823Z,72.00
2018-02-04T15:42:12.451Z,72.10
2018-02-04T15:44:40.067Z,71.40
2018-02-04T15:47:09.295Z,71.30
2018-02-04T15:49:37.637Z,71.60
2018-02-04T15:52:05.209Z,71.40
2018-02-04T15:54:32.862Z,71.30
2018-02-04T15:57:01.463Z,71.60
2018-02-04T15:59:29.192Z,72.00
2018-02-04T16:01:56.867Z,72.20
2018-02-04T16:04:24.577Z,72.60
2018-02-04T16:06:56.694Z,72.90
2018-02-04T16:09:25.296Z,72.90
2018-02-04T16:11:52.904Z,73.10
2018-02-04T16:14:27.785Z,73.10
2018-02-04T16:16:56.028Z,73.20
2018-02-04T16:19:23.654Z,73.20
2018-02-04T16:21:59.241Z,73.80
2018-02-04T16:24:26.972Z,73.80
2018-02-04T16:26:59.216Z,73.90
2018-02-04T16:29:27.897Z,73.90
2018-02-04T16:31:55.532Z,73.90
2018-02-04T16:34:23.161Z,74.30
2018-02-04T16:36:51.832Z,74.50
2018-02-04T16:39:24.984Z,74.40
2018-02-04T16:41:55.728Z,74.30
2018-02-04T16:44:25.205Z,74.10
2018-02-04T16:46:57.149Z,74.50
2018-02-04T16:49:33.144Z,75.00
2018-02-04T16:52:04.338Z,75.10
2018-02-04T16:54:35.283Z,75.30
2018-02-04T16:57:05.582Z,75.70
2018-02-04T16:59:45.376Z,75.80
2018-02-04T17:02:13.022Z,76.00
2018-02-04T17:04:43.704Z,76.20
2018-02-04T17:07:14.565Z,76.50
2018-02-04T17:09:49.220Z,76.60
2018-02-04T17:12:18.653Z,76.60
2018-02-04T17:14:50.436Z,76.90
2018-02-04T17:20:00.569Z,77.00
2018-02-04T17:22:29.443Z,77.10
2018-02-04T17:24:58.614Z,77.30
2018-02-04T17:27:28.201Z,77.40
2018-02-04T17:29:58.303Z,77.30
2018-02-04T17:32:27.067Z,77.40
2018-02-04T17:34:55.297Z,77.40
2018-02-04T17:37:26.265Z,77.50
2018-02-04T17:39:54.308Z,77.60
2018-02-04T17:42:28.682Z,77.60
2018-02-04T17:44:56.536Z,77.60
2018-02-04T17:47:26.728Z,77.80
2018-02-04T17:49:54.933Z,77.80
2018-02-04T17:52:28.179Z,77.80
2018-02-04T17:54:59.883Z,77.90
2018-02-04T18:14:44.603Z,77.60
2018-02-04T18:17:12.223Z,77.60
2018-02-04T18:19:39.867Z,77.50
2018-02-04T18:22:07.483Z,77.50
2018-02-04T18:24:35.180Z,77.50
2018-02-04T18:44:20.329Z,77.80
2018-02-04T18:46:47.919Z,78.00
2018-02-04T19:06:31.631Z,77.90
2018-02-04T19:08:59.225Z,77.80
2018-02-04T19:31:36.810Z,77.90
2018-02-04T19:34:05.359Z,78.00
2018-02-04T19:36:33.056Z,77.80
2018-02-04T19:39:01.521Z,77.90
2018-02-04T19:58:47.707Z,77.90
2018-02-04T20:01:16.156Z,77.80
2018-02-04T20:23:54.220Z,77.70
2018-02-04T20:43:38.424Z,78.20
2018-02-04T21:03:27.042Z,77.90
2018-02-04T21:05:54.759Z,77.90
2018-02-04T21:08:23.448Z,78.00
2018-02-04T21:10:51.104Z,77.90
2018-02-04T21:13:19.979Z,78.00
2018-02-04T21:15:47.860Z,78.00
2018-02-04T21:18:15.774Z,78.00
2018-02-04T21:20:45.625Z,78.00
2018-02-04T21:23:13.230Z,78.00
2018-02-04T21:25:40.757Z,77.90
2018-02-04T21:28:08.746Z,78.00
2018-02-04T21:30:36.544Z,78.00
2018-02-04T21:33:04.060Z,77.90
2018-02-04T21:35:34.164Z,77.90
2018-02-04T21:38:02.082Z,77.80
2018-02-04T21:40:29.624Z,77.80
2018-02-04T21:42:57.213Z,77.90
2018-02-04T21:45:24.863Z,77.90
2018-02-04T21:47:52.379Z,77.80
2018-02-04T21:50:20.025Z,77.90
2018-02-04T21:52:47.608Z,77.90
2018-02-04T21:55:15.167Z,77.90
2018-02-04T21:57:42.741Z,77.80
2018-02-04T22:00:11.998Z,77.40
2018-02-04T22:02:46.951Z,77.10
2018-02-04T22:05:14.565Z,76.80
2018-02-04T22:07:42.464Z,76.70
2018-02-04T22:10:10.216Z,76.60
2018-02-04T22:12:42.507Z,76.70
2018-02-04T22:15:13.003Z,76.70
2018-02-04T22:17:41.900Z,76.60
2018-02-04T22:20:20.401Z,76.70
2018-02-04T22:22:48.007Z,76.70
2018-02-04T22:25:21.883Z,76.40
2018-02-04T22:30:48.949Z,75.70
2018-02-04T22:33:16.470Z,75.50
2018-02-04T22:35:44.560Z,75.80
2018-02-04T22:38:12.126Z,76.00
2018-02-04T22:40:39.854Z,76.00
2018-02-04T22:43:07.557Z,76.10
2018-02-04T22:45:35.650Z,75.80
2018-02-04T22:48:03.560Z,75.30
2018-02-04T22:50:31.155Z,75.30
2018-02-04T22:52:58.797Z,75.70
2018-02-04T22:55:26.335Z,75.30
2018-02-04T22:57:53.906Z,74.70
2018-02-04T23:00:21.456Z,74.70
2018-02-04T23:02:49.044Z,74.70
2018-02-04T23:05:16.562Z,74.70
2018-02-04T23:07:44.166Z,74.60
2018-02-04T23:10:11.655Z,74.60
2018-02-04T23:12:39.218Z,74.50
2018-02-04T23:15:06.769Z,74.90
2018-02-04T23:17:34.346Z,74.90
2018-02-04T23:20:01.916Z,75.10
2018-02-04T23:22:29.529Z,75.20
2018-02-04T23:24:57.451Z,75.40
2018-02-04T23:27:25.043Z,75.40
2018-02-04T23:29:53.034Z,75.30
2018-02-04T23:32:20.609Z,75.30
2018-02-04T23:34:48.221Z,75.20
2018-02-04T23:37:15.803Z,75.30
2018-02-04T23:39:43.793Z,75.20
2018-02-04T23:42:11.394Z,75.20
2018-02-04T23:44:39.013Z,74.90
2018-02-04T23:47:06.543Z,74.90
2018-02-04T23:49:34.510Z,75.20
2018-02-04T23:52:02.463Z,75.20
2018-02-04T23:54:30.394Z,75.30
2018-02-04T23:56:57.928Z,75.30
2018-02-04T23:59:25.511Z,75.30
